Time;durP1;ratioP1;P1;durP2;ratioP2;P2;SDS_P1;SDS_P2;PMS_P1;PMS_P2;Temp;Humidity;BMP_temperature;BMP_pressure;BME280_temperature;BME280_humidity;BME280_pressure;Samples;Min_cycle;Max_cycle;Signal;HPM_P1;HPM_P2
2020/12/26 00:01:48;;;;;;;5.10;2.80;;;24.80;65.30;;;;;;6363752;22;20021;-72
2020/12/26 00:04:37;;;;;;;;;;;24.70;65.20;;;;;;6364896;22;20069;-72
2020/12/26 00:07:43;;;;;;;5.78;3.25;;;24.80;65.30;;;;;;6363263;22;19898;-72
2020/12/26 00:10:29;;;;;;;;;;;24.70;65.20;;;;;;6363904;22;20037;-72
2020/12/26 00:13:35;;;;;;;7.55;3.15;;;24.70;65.20;;;;;;6364913;22;19898;-72
2020/12/26 00:16:44;;;;;;;6.25;2.95;;;24.70;65.20;;;;;;6363571;22;19995;-72
2020/12/26 00:19:50;;;;;;;8.85;3.70;;;24.70;65.20;;;;;;6364312;22;20077;-72
2020/12/26 00:22:36;;;;;;;;;;;24.60;65.10;;;;;;6364078;22;20009;-72
2020/12/26 00:25:42;;;;;;;6.75;2.88;;;24.60;65.20;;;;;;6363877;22;20282;-72
2020/12/26 00:28:28;;;;;;;;;;;24.60;65.20;;;;;;6364153;22;20422;-72
2020/12/26 00:31:34;;;;;;;17.10;4.65;;;24.60;65.20;;;;;;6363772;22;19922;-72
2020/12/26 00:34:21;;;;;;;;;;;24.60;65.30;;;;;;6365164;22;20060;-72
2020/12/26 00:37:27;;;;;;;8.32;3.22;;;24.60;65.40;;;;;;6362796;22;19914;-72
2020/12/26 00:40:33;;;;;;;7.63;2.88;;;24.60;65.40;;;;;;6364766;22;20047;-72
2020/12/26 00:43:39;;;;;;;6.25;2.75;;;24.60;65.40;;;;;;6364450;22;20088;-72
2020/12/26 00:46:25;;;;;;;;;;;24.50;65.40;;;;;;6363477;22;19998;-72
2020/12/26 00:49:31;;;;;;;2.90;2.45;;;24.50;65.50;;;;;;6363954;22;20304;-72
2020/12/26 00:52:17;;;;;;;;;;;24.50;65.50;;;;;;6365132;22;20077;-72
2020/12/26 00:55:23;;;;;;;4.07;2.58;;;24.50;65.60;;;;;;6363431;22;19909;-73
2020/12/26 00:58:09;;;;;;;;;;;24.50;65.50;;;;;;6364160;22;20018;-73
2020/12/26 01:01:15;;;;;;;7.13;4.15;;;24.50;65.60;;;;;;6364201;22;20214;-73
2020/12/26 01:04:01;;;;;;;;;;;24.40;65.60;;;;;;6363948;22;20144;-73
2020/12/26 01:07:13;;;;;;;9.95;4.45;;;24.40;65.60;;;;;;6363301;22;19955;-73
2020/12/26 01:10:20;;;;;;;12.20;5.30;;;24.40;65.60;;;;;;6363585;22;20804;-72
2020/12/26 01:13:05;;;;;;;;;;;24.40;65.70;;;;;;6364437;22;20145;-72
2020/12/26 01:16:12;;;;;;;8.80;4.70;;;24.40;65.70;;;;;;6362917;22;19973;-72
2020/12/26 01:19:18;;;;;;;10.57;6.03;;;24.40;65.80;;;;;;6364638;22;20007;-73
2020/12/26 01:22:03;;;;;;;;;;;24.40;66.40;;;;;;6365096;22;20002;-72
2020/12/26 01:25:09;;;;;;;12.82;6.15;;;24.40;65.90;;;;;;6361353;22;19902;-73
2020/12/26 01:27:55;;;;;;;;;;;24.30;65.80;;;;;;6364732;22;19998;-72
2020/12/26 01:31:01;;;;;;;12.23;6.45;;;24.30;65.90;;;;;;6364316;22;19949;-73
2020/12/26 01:33:47;;;;;;;;;;;24.30;65.90;;;;;;6335415;22;19999;-72
2020/12/26 01:36:53;;;;;;;13.63;8.00;;;24.30;66.00;;;;;;6364416;22;20241;-72
2020/12/26 01:39:59;;;;;;;13.73;6.05;;;24.30;66.00;;;;;;6366348;22;20010;-72
2020/12/26 01:43:05;;;;;;;11.50;6.35;;;24.30;66.10;;;;;;6365029;22;20095;-73
2020/12/26 01:46:12;;;;;;;10.40;7.53;;;24.30;66.10;;;;;;6364558;22;20009;-72
2020/12/26 01:48:57;;;;;;;;;;;24.30;66.20;;;;;;6366901;22;20043;-73
2020/12/26 01:52:04;;;;;;;11.25;7.18;;;24.20;66.20;;;;;;6365802;22;19910;-72
2020/12/26 01:54:49;;;;;;;;;;;24.20;66.20;;;;;;6365688;22;20481;-72
2020/12/26 01:57:55;;;;;;;9.75;7.40;;;24.20;66.30;;;;;;6365600;22;19906;-73
2020/12/26 02:00:41;;;;;;;;;;;24.20;66.40;;;;;;6365982;22;20075;-73
2020/12/26 02:03:47;;;;;;;11.52;5.90;;;24.20;66.40;;;;;;6364619;22;19924;-73
2020/12/26 02:06:39;;;;;;;10.20;5.72;;;24.20;66.50;;;;;;6365620;22;20009;-73
2020/12/26 02:09:45;;;;;;;10.52;5.80;;;24.20;66.50;;;;;;6365729;22;20059;-73
2020/12/26 02:12:31;;;;;;;;;;;24.20;66.60;;;;;;6365036;22;20010;-72
2020/12/26 02:15:37;;;;;;;12.68;5.38;;;24.10;66.70;;;;;;6366048;22;19902;-72
2020/12/26 02:18:43;;;;;;;8.70;5.25;;;24.10;66.70;;;;;;6365912;22;20006;-73
2020/12/26 02:21:29;;;;;;;;;;;24.10;66.90;;;;;;6364444;22;20021;-73
2020/12/26 02:24:35;;;;;;;10.15;5.45;;;24.10;67.00;;;;;;6337550;22;19898;-73
2020/12/26 02:27:41;;;;;;;13.82;5.32;;;24.10;67.10;;;;;;6365685;22;19998;-72
2020/12/26 02:30:47;;;;;;;12.00;5.72;;;24.10;67.20;;;;;;6364759;22;20064;-72
2020/12/26 02:33:53;;;;;;;16.95;7.05;;;24.10;67.30;;;;;;6364562;22;20338;-72
2020/12/26 02:36:59;;;;;;;13.80;5.72;;;24.10;67.40;;;;;;6365978;22;20073;-73
2020/12/26 02:40:06;;;;;;;12.80;6.40;;;24.00;67.50;;;;;;6365679;22;20014;-73
2020/12/26 02:42:51;;;;;;;;;;;24.00;67.50;;;;;;6365342;22;20003;-73
2020/12/26 02:45:58;;;;;;;30.13;5.82;;;24.00;67.60;;;;;;6365588;22;19905;-73
2020/12/26 02:49:04;;;;;;;6.88;4.88;;;24.00;67.70;;;;;;6365618;22;20112;-73
2020/12/26 02:52:10;;;;;;;11.18;5.07;;;24.00;67.80;;;;;;6363740;22;20085;-72
2020/12/26 02:55:16;;;;;;;15.48;5.25;;;24.00;67.90;;;;;;6362815;22;19999;-73
2020/12/26 02:58:02;;;;;;;;;;;24.00;67.90;;;;;;6364356;22;20014;-73
2020/12/26 03:01:08;;;;;;;9.82;4.25;;;24.00;68.00;;;;;;6363760;22;19899;-72
2020/12/26 03:04:14;;;;;;;7.57;3.78;;;23.90;68.00;;;;;;6362333;22;20652;-73
2020/12/26 03:07:20;;;;;;;6.75;3.78;;;23.90;68.10;;;;;;6363734;22;20318;-74
2020/12/26 03:10:26;;;;;;;12.05;5.45;;;23.90;68.80;;;;;;6363527;22;19999;-73
2020/12/26 03:13:12;;;;;;;;;;;23.90;68.20;;;;;;6363184;22;20010;-72
2020/12/26 03:16:18;;;;;;;5.75;3.13;;;23.90;68.30;;;;;;6361933;22;20413;-74
2020/12/26 03:19:04;;;;;;;;;;;23.90;68.30;;;;;;6365119;22;20095;-74
2020/12/26 03:22:10;;;;;;;8.93;3.42;;;23.90;68.40;;;;;;6362354;22;19898;-75
2020/12/26 03:25:16;;;;;;;18.00;10.90;;;23.90;68.50;;;;;;6362538;22;20006;-74
2020/12/26 03:28:22;;;;;;;21.00;15.60;;;23.90;68.50;;;;;;6335404;22;20002;-73
2020/12/26 03:31:08;;;;;;;;;;;23.90;68.60;;;;;;6363796;22;20439;-73
2020/12/26 03:34:14;;;;;;;10.63;6.50;;;23.80;68.60;;;;;;6362323;22;19902;-73
2020/12/26 03:37:20;;;;;;;9.05;5.25;;;23.80;68.60;;;;;;6358094;22;20437;-73
2020/12/26 03:40:27;;;;;;;10.90;4.53;;;23.80;68.70;;;;;;6362696;22;19998;-73
2020/12/26 03:43:33;;;;;;;10.50;4.63;;;23.80;68.80;;;;;;6362138;22;20384;-73
2020/12/26 03:46:19;;;;;;;;;;;23.80;68.90;;;;;;6363826;22;20001;-73
2020/12/26 03:49:26;;;;;;;6.00;3.35;;;23.70;68.80;;;;;;6362128;22;19898;-73
2020/12/26 03:52:33;;;;;;;10.97;3.67;;;23.70;68.90;;;;;;5666205;22;15818556;-74
2020/12/26 03:55:39;;;;;;;5.45;2.75;;;23.80;68.90;;;;;;6363803;22;20238;-75
2020/12/26 03:58:45;;;;;;;12.95;7.05;;;23.80;69.00;;;;;;6364914;22;20098;-75
2020/12/26 04:01:51;;;;;;;14.73;10.50;;;23.80;69.00;;;;;;6363280;22;20362;-74
2020/12/26 04:04:57;;;;;;;11.32;8.95;;;23.70;69.10;;;;;;6362842;22;20002;-73
2020/12/26 04:08:03;;;;;;;15.15;6.60;;;23.70;69.10;;;;;;6364401;22;20426;-72
2020/12/26 04:11:09;;;;;;;9.65;4.50;;;23.70;69.10;;;;;;6362256;22;19994;-73
2020/12/26 04:14:15;;;;;;;8.18;3.53;;;23.70;69.80;;;;;;6362251;22;19998;-73
2020/12/26 04:17:22;;;;;;;8.98;3.75;;;23.70;69.20;;;;;;6361391;22;20364;-73
2020/12/26 04:20:29;;;;;;;6.15;3.30;;;23.70;69.30;;;;;;6364650;22;20070;-74
2020/12/26 04:23:15;;;;;;;;;;;23.70;69.30;;;;;;6364352;22;19999;-73
2020/12/26 04:26:21;;;;;;;9.10;3.47;;;23.60;69.40;;;;;;6363341;22;20355;-72
2020/12/26 04:29:07;;;;;;;;;;;23.70;69.40;;;;;;6336493;22;20003;-74
2020/12/26 04:32:13;;;;;;;11.50;5.65;;;23.70;69.50;;;;;;6363510;22;19996;-73
2020/12/26 04:34:59;;;;;;;;;;;23.70;69.60;;;;;;6363299;22;20031;-73
2020/12/26 04:38:05;;;;;;;8.70;3.95;;;23.70;69.70;;;;;;6364331;22;19958;-73
2020/12/26 04:41:11;;;;;;;8.10;3.80;;;23.70;69.70;;;;;;6364694;22;19994;-75
2020/12/26 04:44:17;;;;;;;9.35;3.40;;;23.60;69.70;;;;;;6363284;22;20002;-73
2020/12/26 04:47:24;;;;;;;8.15;4.05;;;23.70;69.80;;;;;;6364268;22;20009;-74
2020/12/26 04:50:30;;;;;;;5.63;2.42;;;23.60;69.80;;;;;;6364035;22;20010;-73
2020/12/26 04:53:39;;;;;;;7.22;3.33;;;23.60;69.80;;;;;;6363148;22;20018;-73
2020/12/26 04:56:45;;;;;;;13.27;3.00;;;23.70;69.80;;;;;;6334459;22;20025;-75
2020/12/26 04:59:31;;;;;;;;;;;23.70;69.70;;;;;;6362936;22;20014;-75
2020/12/26 05:02:37;;;;;;;7.57;2.47;;;23.70;69.70;;;;;;6335215;22;19923;-74
2020/12/26 05:05:23;;;;;;;;;;;23.70;69.60;;;;;;6362271;22;20013;-73
2020/12/26 05:08:29;;;;;;;5.35;2.50;;;23.70;69.50;;;;;;6363959;22;19898;-73
2020/12/26 05:11:35;;;;;;;7.05;2.75;;;23.70;69.40;;;;;;6364158;22;20299;-75
2020/12/26 05:14:41;;;;;;;6.95;2.67;;;23.70;69.20;;;;;;6362736;22;20061;-75
2020/12/26 05:17:27;;;;;;;;;;;23.80;69.10;;;;;;6363639;22;20014;-74
2020/12/26 05:20:33;;;;;;;3.80;2.17;;;23.70;68.90;;;;;;6364129;22;19898;-74
2020/12/26 05:23:42;;;;;;;6.97;3.58;;;23.70;68.70;;;;;;6362887;22;20025;-74
2020/12/26 05:26:51;;;;;;;7.30;3.42;;;23.70;68.60;;;;;;6362929;22;20034;-74
2020/12/26 05:29:57;;;;;;;9.02;5.70;;;23.70;68.50;;;;;;6362979;22;20009;-75
2020/12/26 05:33:03;;;;;;;9.65;5.80;;;23.80;68.30;;;;;;6364196;22;20006;-75
2020/12/26 05:35:49;;;;;;;;;;;23.80;68.20;;;;;;6362213;22;20073;-73
2020/12/26 05:39:01;;;;;;;5.10;3.05;;;23.80;68.00;;;;;;6362634;22;19910;-73
2020/12/26 05:42:07;;;;;;;8.30;2.88;;;23.90;67.90;;;;;;6364069;22;20073;-75
2020/12/26 05:45:25;;;;;;;4.20;2.53;;;23.90;67.70;;;;;;6363806;22;20337;-74
2020/12/26 05:48:31;;;;;;;4.75;2.78;;;23.90;67.60;;;;;;6362620;22;20014;-75
2020/12/26 05:51:43;;;;;;;8.25;2.67;;;23.90;67.50;;;;;;6363466;22;20056;-74
2020/12/26 05:54:49;;;;;;;4.93;2.42;;;24.00;67.40;;;;;;6364025;22;20133;-73
2020/12/26 05:57:55;;;;;;;8.00;3.75;;;24.00;67.30;;;;;;6362235;22;20018;-74
2020/12/26 06:01:11;;;;;;;4.85;2.72;;;24.10;67.20;;;;;;6363357;22;20063;-74
2020/12/26 06:04:17;;;;;;;6.13;2.40;;;24.10;67.00;;;;;;6363520;22;20010;-75
2020/12/26 06:07:23;;;;;;;6.95;2.85;;;24.10;66.90;;;;;;6360736;22;20011;-77
2020/12/26 06:10:12;;;;;;;;;;;24.20;66.70;;;;;;6363842;22;20002;-74
2020/12/26 06:13:18;;;;;;;6.07;2.75;;;24.20;66.50;;;;;;6363446;22;19898;-75
2020/12/26 06:16:07;;;;;;;;;;;24.30;66.40;;;;;;6364219;22;20013;-77
2020/12/26 06:18:53;;;;;;;6.10;3.15;;;24.30;66.20;;;;;;6362255;22;19906;-74
2020/12/26 06:21:59;;;;;;;6.70;3.13;;;24.40;66.10;;;;;;6362791;22;20420;-74
2020/12/26 06:24:45;;;;;;;;;;;24.40;65.90;;;;;;6366623;22;19998;-75
2020/12/26 06:27:51;;;;;;;7.72;2.80;;;24.40;65.70;;;;;;6364582;22;19982;-75
2020/12/26 06:30:57;;;;;;;7.35;2.90;;;24.50;65.60;;;;;;6364579;22;20013;-74
2020/12/26 06:34:03;;;;;;;6.20;2.35;;;24.60;65.50;;;;;;6365787;22;20413;-72
2020/12/26 06:36:49;;;;;;;;;;;24.60;65.30;;;;;;6364660;22;20030;-73
2020/12/26 06:39:55;;;;;;;5.05;2.70;;;24.60;65.10;;;;;;6364276;22;19910;-73
2020/12/26 06:43:01;;;;;;;7.22;2.58;;;24.70;65.00;;;;;;6365857;22;20421;-74
2020/12/26 06:45:30;;;;;;;;;;;24.70;64.90;;;;;;6365003;22;19995;-74
2020/12/26 06:48:36;;;;;;;4.70;2.45;;;24.70;64.70;;;;;;6365311;22;19990;-74
2020/12/26 06:52:01;;;;;;;5.72;1.65;;;24.80;64.60;;;;;;6361602;22;20334;-75
2020/12/26 06:55:19;;;;;;;5.50;1.85;;;24.80;64.30;;;;;;6207282;23;20004;-75
2020/12/26 06:58:25;;;;;;;4.25;1.55;;;24.90;64.60;;;;;;6364275;22;20034;-74
2020/12/26 07:01:11;;;;;;;;;;;24.90;63.80;;;;;;6337241;22;20029;-74
2020/12/26 07:04:06;;;;;;;3.33;1.13;;;25.00;63.70;;;;;;6366400;22;19912;-74
2020/12/26 07:07:18;;;;;;;4.25;1.85;;;25.00;63.40;;;;;;6363982;22;20026;-73
2020/12/26 07:10:24;;;;;;;5.85;2.53;;;25.00;63.20;;;;;;6364365;22;20097;-73
2020/12/26 07:13:10;;;;;;;;;;;25.10;63.10;;;;;;6366144;22;20020;-74
2020/12/26 07:16:16;;;;;;;3.00;2.28;;;25.10;62.60;;;;;;6364023;22;19908;-75
2020/12/26 07:19:23;;;;;;;6.13;2.80;;;25.20;63.30;;;;;;6336584;22;20015;-76
2020/12/26 07:22:33;;;;;;;3.65;1.80;;;25.20;62.50;;;;;;6365175;22;20073;-76
2020/12/26 07:25:45;;;;;;;3.38;1.75;;;25.30;62.30;;;;;;6364491;22;20045;-76
2020/12/26 07:28:51;;;;;;;4.97;2.03;;;25.40;61.90;;;;;;6363526;22;19999;-76
2020/12/26 07:31:37;;;;;;;;;;;25.40;61.50;;;;;;6363278;22;20496;-76
2020/12/26 07:34:58;;;;;;;4.63;1.45;;;25.40;61.20;;;;;;6360002;22;19898;-77
2020/12/26 07:37:53;;;;;;;5.40;1.40;;;25.50;61.10;;;;;;6361365;22;20018;-76
2020/12/26 07:41:05;;;;;;;3.38;1.60;;;25.60;60.80;;;;;;6363975;22;19995;-75
2020/12/26 07:44:14;;;;;;;5.13;1.48;;;25.70;60.40;;;;;;6365168;22;20077;-73
2020/12/26 07:47:20;;;;;;;2.28;1.50;;;25.70;60.10;;;;;;6363410;22;20366;-77
2020/12/26 07:50:15;;;;;;;;;;;25.80;59.90;;;;;;6364272;22;20330;-76
2020/12/26 07:53:24;;;;;;;3.08;0.93;;;25.80;59.60;;;;;;6364713;22;19910;-79
2020/12/26 07:56:31;;;;;;;8.15;1.48;;;25.90;59.10;;;;;;6364482;22;20009;-75
2020/12/26 07:59:16;;;;;;;;;;;26.00;58.60;;;;;;6364692;22;20006;-79
2020/12/26 08:02:22;;;;;;;2.13;1.05;;;26.00;58.30;;;;;;6364472;22;20257;-77
2020/12/26 08:05:08;;;;;;;;;;;26.10;57.80;;;;;;6365170;22;20030;-78
2020/12/26 08:08:14;;;;;;;4.38;1.58;;;26.10;57.80;;;;;;6363654;22;19902;-80
2020/12/26 08:11:20;;;;;;;5.35;2.28;;;26.30;57.60;;;;;;6363124;22;19998;-80
2020/12/26 08:14:06;;;;;;;;;;;26.30;57.20;;;;;;6365093;22;20013;-79
2020/12/26 08:16:52;;;;;;;;;;;26.40;56.80;;;;;;6332560;22;19932;-81
2020/12/26 08:19:59;;;;;;;8.35;7.38;;;26.50;56.40;;;;;;6335737;22;19906;-82
2020/12/26 08:23:05;;;;;;;18.80;16.30;;;26.50;55.70;;;;;;6364730;22;20325;-81
2020/12/26 08:26:11;;;;;;;12.02;10.80;;;26.60;55.30;;;;;;6364131;22;19995;-81
2020/12/26 08:29:20;;;;;;;8.55;5.43;;;26.70;54.90;;;;;;6361142;22;20025;-80
2020/12/26 08:32:27;;;;;;;9.25;4.28;;;26.80;54.20;;;;;;6364012;22;20629;-81
2020/12/26 08:35:39;;;;;;;6.45;3.55;;;26.90;53.50;;;;;;6364671;22;20006;-81
2020/12/26 08:38:46;;;;;;;5.82;3.85;;;27.00;53.40;;;;;;6363427;22;20342;-81
2020/12/26 08:41:53;;;;;;;5.72;3.20;;;27.10;53.00;;;;;;6363079;22;20005;-81
2020/12/26 08:44:59;;;;;;;3.13;2.10;;;27.10;52.60;;;;;;6365074;22;19999;-82
2020/12/26 08:48:05;;;;;;;3.22;2.33;;;27.20;51.90;;;;;;6364740;22;19999;-83
2020/12/26 08:51:14;;;;;;;6.90;2.15;;;27.20;51.10;;;;;;6363153;22;20003;-80
2020/12/26 08:54:20;;;;;;;4.50;1.65;;;27.30;51.10;;;;;;6317503;22;20089;-82
2020/12/26 08:57:26;;;;;;;2.72;1.50;;;27.40;51.20;;;;;;6332968;22;20067;-82
2020/12/26 09:00:41;;;;;;;5.20;2.60;;;27.50;51.20;;;;;;6333204;22;20010;-82
2020/12/26 09:03:47;;;;;;;5.03;2.08;;;27.50;50.80;;;;;;6332377;22;20006;-80
2020/12/26 09:06:53;;;;;;;17.35;14.52;;;27.60;50.50;;;;;;6333066;22;20009;-82
2020/12/26 09:10:02;;;;;;;9.80;7.35;;;27.70;50.50;;;;;;6331127;22;20078;-80
2020/12/26 09:13:08;;;;;;;8.18;5.03;;;27.80;50.20;;;;;;6332538;22;20006;-78
2020/12/26 09:16:32;;;;;;;10.55;3.97;;;27.90;50.90;;;;;;6329998;22;20039;-79
2020/12/26 09:19:38;;;;;;;4.63;3.20;;;27.90;52.00;;;;;;6330503;22;20354;-81
2020/12/26 09:22:48;;;;;;;6.18;3.72;;;27.90;52.50;;;;;;6332884;22;20414;-80
2020/12/26 09:26:03;;;;;;;6.28;2.55;;;27.90;52.60;;;;;;6331963;22;20511;-80
2020/12/26 09:29:09;;;;;;;5.57;2.92;;;28.00;52.70;;;;;;6332041;22;19999;-81
2020/12/26 09:31:38;;;;;;;4.82;2.15;;;28.00;52.60;;;;;;6332763;22;20075;-80
2020/12/26 09:34:19;;;;;;;5.93;2.28;;;28.00;52.60;;;;;;6331679;22;20038;-79
2020/12/26 09:36:47;;;;;;;4.70;2.08;;;28.10;52.80;;;;;;6332282;22;19995;-80
2020/12/26 09:39:14;;;;;;;7.10;2.00;;;28.10;52.80;;;;;;6332509;22;20003;-79
2020/12/26 09:41:43;;;;;;;5.07;1.92;;;28.00;52.80;;;;;;6329477;22;20331;-79
2020/12/26 09:44:10;;;;;;;6.43;2.40;;;28.00;52.90;;;;;;6333489;22;20072;-79
2020/12/26 09:46:38;;;;;;;7.35;2.35;;;28.00;53.00;;;;;;6331334;22;20055;-82
2020/12/26 09:49:04;;;;;;;5.88;1.70;;;28.00;53.10;;;;;;6332595;22;20365;-77
2020/12/26 09:51:31;;;;;;;5.13;1.95;;;28.00;52.80;;;;;;6339227;22;20011;-82
2020/12/26 09:53:58;;;;;;;14.60;9.30;;;28.10;52.60;;;;;;6364183;22;20036;-80
2020/12/26 09:56:26;;;;;;;6.90;4.10;;;28.10;52.70;;;;;;6364352;22;20124;-79
2020/12/26 09:58:54;;;;;;;53.53;7.80;;;28.20;52.70;;;;;;6365097;22;20010;-80
2020/12/26 10:01:21;;;;;;;40.05;7.80;;;28.30;52.60;;;;;;6366139;22;20231;-80
2020/12/26 10:03:50;;;;;;;35.72;13.18;;;28.30;52.50;;;;;;6365087;22;19998;-79
2020/12/26 10:06:19;;;;;;;11.20;5.20;;;28.30;53.00;;;;;;6366030;22;20152;-79
2020/12/26 10:08:47;;;;;;;13.60;4.30;;;28.40;52.70;;;;;;6364942;22;19995;-80
2020/12/26 10:11:16;;;;;;;9.98;3.40;;;28.40;52.40;;;;;;6365474;22;20033;-79
2020/12/26 10:13:44;;;;;;;10.55;2.25;;;28.40;52.50;;;;;;6366072;22;19998;-80
2020/12/26 10:16:11;;;;;;;6.72;2.78;;;28.40;52.30;;;;;;6364953;22;20437;-80
2020/12/26 10:18:39;;;;;;;3.53;1.55;;;28.40;52.30;;;;;;6337671;22;20135;-80
2020/12/26 10:21:05;;;;;;;7.90;2.63;;;28.40;52.30;;;;;;6364448;22;20009;-80
2020/12/26 10:23:32;;;;;;;6.38;3.08;;;28.40;52.30;;;;;;6338587;22;20013;-82
2020/12/26 10:26:06;;;;;;;6.78;2.63;;;28.40;52.40;;;;;;6365389;22;20329;-81
2020/12/26 10:28:34;;;;;;;6.53;2.22;;;28.50;52.30;;;;;;6366209;22;19994;-81
2020/12/26 10:31:01;;;;;;;6.30;1.83;;;28.40;52.30;;;;;;6366804;22;20082;-88
2020/12/26 10:33:28;;;;;;;15.70;4.18;;;28.50;52.50;;;;;;6366662;22;19998;-78
2020/12/26 10:35:55;;;;;;;8.27;2.42;;;28.50;52.50;;;;;;6366722;22;20073;-81
2020/12/26 10:38:22;;;;;;;7.95;1.90;;;28.50;52.40;;;;;;6364171;22;20010;-84
2020/12/26 10:41:28;;;;;;;5.03;1.90;;;28.50;52.40;;;;;;6365755;22;19998;-81
2020/12/26 10:44:34;;;;;;;9.55;2.55;;;28.60;53.20;;;;;;6365004;22;19999;-81
2020/12/26 10:47:40;;;;;;;7.13;1.65;;;28.60;52.60;;;;;;6364344;22;20034;-76
2020/12/26 10:50:46;;;;;;;7.40;2.28;;;28.70;52.80;;;;;;6361514;22;20409;-80
2020/12/26 10:53:52;;;;;;;4.50;1.88;;;28.70;52.60;;;;;;6365053;22;20062;-76
2020/12/26 10:56:58;;;;;;;3.92;2.08;;;28.70;52.80;;;;;;6363837;22;20070;-80
2020/12/26 11:00:05;;;;;;;4.93;2.15;;;28.70;52.70;;;;;;6364444;22;20056;-81
2020/12/26 11:03:11;;;;;;;3.53;1.58;;;28.70;52.70;;;;;;6365218;22;20107;-79
2020/12/26 11:06:17;;;;;;;7.65;3.00;;;28.70;52.60;;;;;;6364295;22;20022;-81
2020/12/26 11:09:23;;;;;;;7.05;1.83;;;28.70;52.70;;;;;;6363520;22;19999;-82
2020/12/26 11:12:29;;;;;;;4.28;1.65;;;28.70;52.80;;;;;;6366203;22;20606;-82
2020/12/26 11:15:35;;;;;;;5.13;1.40;;;28.70;52.70;;;;;;6366020;22;20352;-83
2020/12/26 11:18:42;;;;;;;5.82;3.22;;;28.50;52.80;;;;;;6364380;22;20010;-81
2020/12/26 11:21:48;;;;;;;4.82;1.95;;;28.50;52.70;;;;;;6364875;22;20078;-84
2020/12/26 11:24:54;;;;;;;4.05;1.30;;;28.50;52.90;;;;;;6337551;22;20380;-82
2020/12/26 11:28:02;;;;;;;2.55;1.73;;;28.50;52.90;;;;;;6364860;22;19999;-81
2020/12/26 11:31:08;;;;;;;4.50;1.58;;;28.50;52.90;;;;;;6363898;22;20005;-80
2020/12/26 11:34:14;;;;;;;4.63;1.08;;;28.50;53.10;;;;;;6364600;22;20453;-80
2020/12/26 11:37:20;;;;;;;6.07;1.60;;;28.50;53.10;;;;;;6365653;22;20087;-81
2020/12/26 11:40:26;;;;;;;2.75;1.05;;;28.50;53.00;;;;;;6365024;22;20006;-80
2020/12/26 11:43:33;;;;;;;7.35;2.40;;;28.60;53.20;;;;;;6364624;22;20406;-80
2020/12/26 11:46:39;;;;;;;4.63;2.08;;;28.50;53.30;;;;;;6365469;22;20006;-79
2020/12/26 11:49:45;;;;;;;5.80;2.33;;;28.50;53.50;;;;;;6365255;22;20667;-77
2020/12/26 11:52:51;;;;;;;4.07;1.92;;;28.60;53.50;;;;;;6363636;22;20022;-78
2020/12/26 11:55:57;;;;;;;4.45;1.80;;;28.50;53.30;;;;;;6364968;22;20085;-76
2020/12/26 11:59:03;;;;;;;5.28;2.35;;;28.60;53.40;;;;;;6365193;22;20013;-79
2020/12/26 12:02:10;;;;;;;5.55;1.20;;;28.50;53.30;;;;;;6364380;22;20486;-78
2020/12/26 12:05:16;;;;;;;8.57;2.53;;;28.50;53.20;;;;;;6363103;22;20003;-83
2020/12/26 12:08:22;;;;;;;6.45;2.38;;;28.50;53.30;;;;;;6365407;22;19994;-81
2020/12/26 12:11:28;;;;;;;5.18;1.80;;;28.60;53.20;;;;;;6365178;22;20002;-85
2020/12/26 12:14:34;;;;;;;6.22;2.80;;;28.60;53.10;;;;;;6364250;22;20417;-84
2020/12/26 12:17:40;;;;;;;16.88;12.05;;;28.70;52.60;;;;;;6364908;22;20827;-85
2020/12/26 12:20:49;;;;;;;48.20;31.73;;;28.70;52.40;;;;;;6364668;22;19994;-79
2020/12/26 12:23:55;;;;;;;67.03;46.63;;;28.70;51.90;;;;;;6363597;22;20033;-81
2020/12/26 12:27:01;;;;;;;42.92;24.13;;;28.80;52.00;;;;;;6363242;22;20764;-81
2020/12/26 12:30:07;;;;;;;22.05;12.80;;;28.80;51.90;;;;;;6336458;22;20329;-81
2020/12/26 12:33:13;;;;;;;10.82;5.78;;;28.90;51.90;;;;;;6365035;22;20001;-84
2020/12/26 12:36:19;;;;;;;7.95;3.97;;;28.90;51.80;;;;;;6363793;22;20001;-82
2020/12/26 12:39:25;;;;;;;4.72;2.95;;;29.00;51.60;;;;;;6336544;22;20363;-86
2020/12/26 12:42:34;;;;;;;4.43;4.00;;;29.00;51.20;;;;;;6337603;22;20358;-84
2020/12/26 12:45:40;;;;;;;11.00;3.38;;;29.00;49.90;;;;;;6365592;22;19998;-81
2020/12/26 12:48:46;;;;;;;5.22;2.83;;;29.10;49.20;;;;;;6363193;22;20033;-81
2020/12/26 12:51:52;;;;;;;5.82;1.92;;;29.20;47.80;;;;;;6364898;22;20444;-83
2020/12/26 12:54:58;;;;;;;6.05;2.50;;;29.20;47.10;;;;;;6338241;22;20006;-83
2020/12/26 12:58:05;;;;;;;6.35;2.00;;;29.20;46.90;;;;;;6364344;22;20087;-84
2020/12/26 13:01:11;;;;;;;3.33;1.35;;;29.30;46.60;;;;;;6364780;22;20058;-82
2020/12/26 13:04:17;;;;;;;3.90;1.33;;;29.20;46.60;;;;;;6365868;22;19998;-85
2020/12/26 13:07:23;;;;;;;4.80;1.42;;;29.30;46.40;;;;;;6364607;22;20069;-85
2020/12/26 13:10:29;;;;;;;3.58;1.25;;;29.30;46.80;;;;;;6363489;22;20009;-86
2020/12/26 13:13:35;;;;;;;4.20;1.48;;;29.40;47.20;;;;;;6365143;22;19994;-84
2020/12/26 13:16:41;;;;;;;4.60;1.70;;;29.30;47.30;;;;;;6365146;22;20013;-86
2020/12/26 13:19:47;;;;;;;6.30;2.50;;;29.30;47.00;;;;;;6364459;22;20014;-84
2020/12/26 13:22:53;;;;;;;4.47;1.33;;;29.40;47.50;;;;;;6336591;22;20421;-80
2020/12/26 13:25:59;;;;;;;4.80;1.30;;;29.40;47.60;;;;;;6365924;22;20004;-85
2020/12/26 13:29:06;;;;;;;3.17;1.20;;;29.40;47.70;;;;;;6364715;22;20003;-84
2020/12/26 13:32:12;;;;;;;9.82;1.65;;;29.40;47.50;;;;;;6364904;22;20005;-85
2020/12/26 13:35:18;;;;;;;3.75;0.95;;;29.50;47.50;;;;;;6367302;22;20074;-86
2020/12/26 13:38:24;;;;;;;1.42;1.08;;;29.50;47.60;;;;;;6366854;22;20006;-81
2020/12/26 13:41:30;;;;;;;4.80;1.35;;;29.50;47.40;;;;;;6366209;22;20482;-83
2020/12/26 13:44:36;;;;;;;4.38;2.05;;;29.50;47.30;;;;;;6366150;22;20371;-85
2020/12/26 13:47:42;;;;;;;2.75;1.73;;;29.50;47.70;;;;;;6340550;22;20004;-84
2020/12/26 13:50:48;;;;;;;3.53;1.92;;;29.50;48.00;;;;;;6368131;22;19994;-86
2020/12/26 13:53:54;;;;;;;5.35;2.90;;;29.50;48.20;;;;;;6332374;22;20076;-83
2020/12/26 13:57:04;;;;;;;3.58;2.17;;;29.50;48.30;;;;;;6335548;22;20028;-87
2020/12/26 14:00:10;;;;;;;4.88;2.50;;;29.40;48.40;;;;;;6334610;22;20068;-83
2020/12/26 14:03:16;;;;;;;5.38;3.08;;;29.50;49.00;;;;;;6334681;22;20084;-84
2020/12/26 14:06:22;;;;;;;6.55;2.17;;;29.50;49.30;;;;;;6334914;22;20026;-86
2020/12/26 14:09:28;;;;;;;7.22;2.85;;;29.50;49.30;;;;;;6332171;22;20365;-82
2020/12/26 14:12:34;;;;;;;4.63;2.40;;;29.50;49.20;;;;;;6335707;22;19998;-83
2020/12/26 14:15:40;;;;;;;8.32;7.50;;;29.50;49.00;;;;;;6333956;22;19995;-81
2020/12/26 14:18:46;;;;;;;4.97;2.70;;;29.60;48.50;;;;;;6333749;22;20007;-84
2020/12/26 14:21:52;;;;;;;2.58;2.13;;;29.60;47.60;;;;;;6336085;22;19999;-84
2020/12/26 14:25:00;;;;;;;4.43;1.48;;;29.60;47.20;;;;;;6336162;22;20082;-86
2020/12/26 14:28:06;;;;;;;5.35;1.73;;;29.60;47.00;;;;;;6333052;22;20315;-83
2020/12/26 14:31:12;;;;;;;7.35;2.92;;;29.60;46.90;;;;;;6332807;22;20358;-81
2020/12/26 14:34:18;;;;;;;5.85;1.90;;;29.60;47.00;;;;;;6333749;22;20001;-80
2020/12/26 14:37:24;;;;;;;7.70;2.20;;;29.60;46.50;;;;;;6333590;22;20125;-83
2020/12/26 14:40:35;;;;;;;4.05;1.77;;;29.60;45.90;;;;;;6332995;22;20015;-78
2020/12/26 14:43:42;;;;;;;5.22;1.70;;;29.50;45.60;;;;;;6334766;22;20824;-80
2020/12/26 14:46:49;;;;;;;4.90;1.10;;;29.60;43.80;;;;;;6333787;22;20002;-84
2020/12/26 14:49:55;;;;;;;3.63;1.42;;;29.60;42.60;;;;;;6332765;22;20326;-81
2020/12/26 14:53:01;;;;;;;3.53;1.88;;;29.60;41.30;;;;;;6351924;22;20006;-78
2020/12/26 14:56:07;;;;;;;4.78;1.90;;;29.50;41.40;;;;;;6365385;22;19998;-75
2020/12/26 14:59:14;;;;;;;8.05;2.10;;;29.50;41.10;;;;;;6363873;22;20033;-74
2020/12/26 15:02:20;;;;;;;2.78;1.80;;;29.50;39.30;;;;;;6364864;22;19999;-74
2020/12/26 15:05:26;;;;;;;6.22;2.20;;;29.50;40.10;;;;;;6365545;22;20207;-75
2020/12/26 15:08:32;;;;;;;6.80;1.85;;;29.40;40.60;;;;;;6365232;22;20013;-72
2020/12/26 15:11:38;;;;;;;6.32;1.90;;;29.40;40.80;;;;;;6364039;22;20003;-73
2020/12/26 15:14:44;;;;;;;3.72;2.08;;;29.40;40.80;;;;;;6364236;22;20006;-73
2020/12/26 15:17:50;;;;;;;3.13;0.90;;;29.40;40.90;;;;;;6365062;22;20006;-73
2020/12/26 15:20:57;;;;;;;3.90;1.10;;;29.30;41.60;;;;;;6364463;22;19998;-73
2020/12/26 15:24:03;;;;;;;2.08;0.95;;;29.30;42.90;;;;;;6363811;22;20030;-72
2020/12/26 15:27:09;;;;;;;2.78;1.20;;;29.30;44.50;;;;;;6364138;22;20133;-72
2020/12/26 15:30:15;;;;;;;4.97;1.98;;;29.30;44.80;;;;;;6363883;22;19998;-73
2020/12/26 15:33:21;;;;;;;4.53;1.10;;;29.30;45.70;;;;;;6363921;22;20416;-73
2020/12/26 15:36:27;;;;;;;2.22;0.98;;;29.30;46.30;;;;;;6364295;22;20114;-73
2020/12/26 15:39:33;;;;;;;5.70;1.65;;;29.20;46.60;;;;;;6364489;22;20334;-73
2020/12/26 15:42:39;;;;;;;2.35;1.15;;;29.20;47.10;;;;;;6363664;22;20382;-73
2020/12/26 15:45:45;;;;;;;3.88;1.48;;;29.20;47.50;;;;;;6363486;22;19995;-73
2020/12/26 15:48:51;;;;;;;2.03;1.15;;;29.20;47.80;;;;;;6364895;22;20003;-72